createdAt,value
2018-09-29T00:05:53.000Z,20.5
2018-09-29T00:15:53.000Z,20.5
2018-09-29T00:25:53.000Z,20.5
2018-09-29T00:35:53.000Z,20.5
2018-09-29T00:45:53.000Z,20.3
2018-09-29T00:55:53.000Z,20.5
2018-09-29T01:05:53.000Z,20.4
2018-09-29T01:15:53.000Z,20.4
2018-09-29T01:25:53.000Z,20.4
2018-09-29T01:35:53.000Z,20.5
2018-09-29T01:45:53.000Z,20.4
2018-09-29T01:55:53.000Z,20.4
2018-09-29T02:05:53.000Z,20.4
2018-09-29T02:15:53.000Z,20.4
2018-09-29T02:25:53.000Z,20.4
2018-09-29T02:35:53.000Z,20.2
2018-09-29T02:45:53.000Z,20.4
2018-09-29T02:55:53.000Z,20.4
2018-09-29T03:05:53.000Z,20.3
2018-09-29T03:15:53.000Z,20.3
2018-09-29T03:25:53.000Z,20.3
2018-09-29T03:35:53.000Z,20.2
2018-09-29T03:45:53.000Z,20.3
2018-09-29T03:55:53.000Z,20.1
2018-09-29T04:05:53.000Z,20.2
2018-09-29T04:15:54.000Z,20.1
2018-09-29T04:25:53.000Z,20.2
2018-09-29T04:35:53.000Z,20.2
2018-09-29T04:45:53.000Z,20.2
2018-09-29T04:55:53.000Z,20.2
2018-09-29T05:05:53.000Z,20.2
2018-09-29T05:15:54.000Z,20.2
2018-09-29T05:25:53.000Z,20.2
2018-09-29T05:45:54.000Z,20.2
2018-09-29T05:55:54.000Z,20.1
2018-09-29T06:05:54.000Z,20.2
2018-09-29T06:15:54.000Z,20
2018-09-29T06:25:54.000Z,20.2
2018-09-29T06:35:54.000Z,20.2
2018-09-29T06:45:54.000Z,20.2
2018-09-29T06:55:54.000Z,20.2
2018-09-29T07:05:54.000Z,20.3
2018-09-29T07:15:54.000Z,20.4
2018-09-29T07:25:54.000Z,20.4
2018-09-29T07:35:54.000Z,20.3
2018-09-29T07:45:54.000Z,20.4
2018-09-29T07:55:54.000Z,20.4
2018-09-29T08:05:54.000Z,20.4
2018-09-29T08:15:54.000Z,20.5
2018-09-29T08:25:54.000Z,20.4
2018-09-29T08:35:54.000Z,20.4
2018-09-29T08:45:54.000Z,20.4
2018-09-29T08:55:57.000Z,20.5
2018-09-29T09:05:54.000Z,20.5
2018-09-29T09:15:54.000Z,20.5
2018-09-29T09:25:54.000Z,20.4
2018-09-29T09:35:54.000Z,20.4
2018-09-29T09:45:54.000Z,20.5
2018-09-29T09:55:54.000Z,20.5
2018-09-29T10:05:54.000Z,20.5
2018-09-29T10:15:54.000Z,20.4
2018-09-29T10:25:54.000Z,20.4
2018-09-29T10:35:54.000Z,20.5
2018-09-29T10:45:55.000Z,20.4
2018-09-29T10:55:54.000Z,20.5
2018-09-29T11:05:54.000Z,20.5
2018-09-29T11:15:54.000Z,20.5
2018-09-29T11:25:55.000Z,20.5
2018-09-29T11:35:54.000Z,20.4
2018-09-29T11:45:54.000Z,20.4
2018-09-29T11:55:54.000Z,20.5
2018-09-29T12:05:54.000Z,20.5
2018-09-29T12:15:54.000Z,20.5
2018-09-29T12:25:55.000Z,20.6
2018-09-29T12:35:55.000Z,20.5
2018-09-29T12:45:55.000Z,20.5
2018-09-29T12:55:55.000Z,20.5
2018-09-29T13:05:55.000Z,20.5
2018-09-29T13:15:55.000Z,20.5
2018-09-29T13:25:55.000Z,20.5
2018-09-29T13:35:55.000Z,20.5
2018-09-29T13:45:55.000Z,20.5
2018-09-29T13:55:55.000Z,20.5
2018-09-29T14:05:55.000Z,20.5
2018-09-29T14:15:55.000Z,20.5
2018-09-29T14:25:55.000Z,20.5
2018-09-29T14:35:55.000Z,20.4
2018-09-29T14:45:55.000Z,20.5
2018-09-29T14:55:55.000Z,20.4
2018-09-29T15:05:55.000Z,20.5
2018-09-29T15:15:56.000Z,20.7
2018-09-29T15:25:55.000Z,20.8
2018-09-29T15:35:55.000Z,20.9
2018-09-29T15:45:55.000Z,21
2018-09-29T15:55:55.000Z,20.7
2018-09-29T16:05:55.000Z,20.6
2018-09-29T16:15:55.000Z,20.6
2018-09-29T16:25:55.000Z,20.5
2018-09-29T16:35:55.000Z,20.7
2018-09-29T16:45:55.000Z,20.7
2018-09-29T16:55:55.000Z,20.7
2018-09-29T17:05:55.000Z,20.6
2018-09-29T17:15:55.000Z,20.7
2018-09-29T17:25:55.000Z,20.5
2018-09-29T17:35:55.000Z,20.7
2018-09-29T17:45:57.000Z,20.7
2018-09-29T18:05:55.000Z,20.7
2018-09-29T18:15:55.000Z,20.9
2018-09-29T18:25:56.000Z,20.9
2018-09-29T18:35:55.000Z,21
2018-09-29T18:45:55.000Z,20.7
2018-09-29T18:55:55.000Z,20.6
2018-09-29T19:05:56.000Z,20.4
2018-09-29T19:15:56.000Z,20.5
2018-09-29T19:25:56.000Z,20.4
2018-09-29T19:35:56.000Z,20.4
2018-09-29T19:45:56.000Z,20.3
2018-09-29T19:55:56.000Z,20.2
2018-09-29T20:05:56.000Z,20.3
2018-09-29T20:15:56.000Z,20.3
2018-09-29T20:25:56.000Z,20.2
2018-09-29T20:35:56.000Z,20.2
2018-09-29T20:45:56.000Z,20.1
2018-09-29T20:55:56.000Z,20.3
2018-09-29T21:05:56.000Z,20.4
2018-09-29T21:15:56.000Z,20.2
2018-09-29T21:25:57.000Z,20.4
2018-09-29T21:35:56.000Z,20.4
2018-09-29T21:45:56.000Z,20.2
2018-09-29T21:55:56.000Z,19.3
2018-09-29T22:05:56.000Z,18.7
2018-09-29T22:15:56.000Z,18.6
2018-09-29T22:25:56.000Z,18.5
2018-09-29T22:35:56.000Z,18.4
2018-09-29T22:45:56.000Z,18.2
2018-09-29T22:55:58.000Z,18.2
2018-09-29T23:05:57.000Z,18.3
2018-09-29T23:15:56.000Z,18.1
2018-09-29T23:25:56.000Z,18
2018-09-29T23:35:56.000Z,17.8
2018-09-29T23:45:56.000Z,17.7
2018-09-29T23:55:56.000Z,17.6
